createdAt,value
2023-05-01T00:01:14.163Z,19.55
2023-05-01T00:03:41.781Z,19.46
2023-05-01T00:06:10.371Z,19.43
2023-05-01T00:08:37.943Z,19.69
2023-05-01T00:11:09.831Z,19.09
2023-05-01T00:13:37.481Z,19.18
2023-05-01T00:16:12.729Z,18.92
2023-05-01T00:18:40.517Z,19.22
2023-05-01T00:21:07.968Z,19.07
2023-05-01T00:23:35.522Z,19.35
2023-05-01T00:26:03.108Z,19.05
2023-05-01T00:28:30.525Z,19.14
2023-05-01T00:30:58.188Z,19.23
2023-05-01T00:33:25.830Z,19.06
2023-05-01T00:35:53.389Z,19.24
2023-05-01T00:38:20.956Z,19.24
2023-05-01T00:40:48.781Z,19.16
2023-05-01T00:43:16.475Z,19.21
2023-05-01T00:45:48.589Z,19.29
2023-05-01T00:48:16.498Z,19.06
2023-05-01T00:50:45.639Z,18.90
2023-05-01T00:53:13.439Z,19.04
2023-05-01T00:55:42.793Z,19.19
2023-05-01T00:58:11.643Z,19.24
2023-05-01T01:00:39.286Z,19.27
2023-05-01T01:03:07.098Z,19.15
2023-05-01T01:05:51.532Z,19.34
2023-05-01T01:08:35.718Z,19.22
2023-05-01T01:11:25.615Z,19.02
2023-05-01T01:14:00.210Z,19.07
2023-05-01T01:16:46.373Z,19.05
2023-05-01T01:19:18.193Z,19.00
2023-05-01T01:21:50.003Z,18.94
2023-05-01T01:24:46.843Z,19.03
2023-05-01T01:27:52.382Z,18.81
2023-05-01T01:30:41.650Z,18.81
2023-05-01T01:33:36.960Z,19.12
2023-05-01T01:36:21.453Z,18.90
2023-05-01T01:39:03.778Z,18.98
2023-05-01T01:41:34.780Z,18.85
2023-05-01T01:44:21.259Z,19.00
2023-05-01T01:46:51.418Z,19.04
2023-05-01T01:49:25.298Z,18.65
2023-05-01T01:51:57.947Z,18.61
2023-05-01T01:54:33.037Z,18.75
2023-05-01T01:57:03.626Z,18.70
2023-05-01T01:59:34.543Z,18.66
2023-05-01T02:02:05.626Z,18.75
2023-05-01T02:04:37.240Z,18.52
2023-05-01T02:07:06.611Z,18.68
2023-05-01T02:09:35.664Z,18.45
2023-05-01T02:12:07.722Z,18.68
2023-05-01T02:14:37.680Z,18.42
2023-05-01T02:17:07.086Z,18.33
2023-05-01T02:19:35.912Z,18.30
2023-05-01T02:22:06.050Z,18.39
2023-05-01T02:24:35.984Z,18.56
2023-05-01T02:27:09.733Z,18.35
2023-05-01T02:29:37.940Z,18.26
2023-05-01T02:32:06.225Z,18.43
2023-05-01T02:34:39.609Z,18.59
2023-05-01T02:37:11.834Z,18.51
2023-05-01T02:39:42.113Z,18.49
2023-05-01T02:42:12.912Z,18.28
2023-05-01T02:44:44.534Z,18.16
2023-05-01T02:47:16.916Z,18.27
2023-05-01T02:49:48.042Z,18.27
2023-05-01T02:52:22.203Z,18.07
2023-05-01T02:54:56.209Z,18.27
2023-05-01T02:57:24.497Z,18.24
2023-05-01T02:59:52.669Z,18.24
2023-05-01T03:02:20.403Z,18.13
2023-05-01T03:04:48.432Z,18.16
2023-05-01T03:07:16.337Z,18.16
2023-05-01T03:09:44.412Z,18.13
2023-05-01T03:12:12.355Z,18.27
2023-05-01T03:14:40.312Z,18.28
2023-05-01T03:17:08.123Z,18.13
2023-05-01T03:19:37.255Z,17.98
2023-05-01T03:22:05.180Z,18.33
2023-05-01T03:24:33.172Z,18.01
2023-05-01T03:27:01.012Z,17.86
2023-05-01T03:29:29.500Z,18.31
2023-05-01T03:31:57.951Z,18.26
2023-05-01T03:34:25.987Z,18.32
2023-05-01T03:36:55.769Z,18.02
2023-05-01T03:39:28.292Z,18.02
2023-05-01T03:42:31.233Z,18.04
2023-05-01T03:45:05.569Z,18.26
2023-05-01T03:47:34.056Z,18.14
2023-05-01T03:50:02.197Z,18.30
2023-05-01T03:52:30.992Z,17.94
2023-05-01T03:54:59.451Z,18.31
2023-05-01T03:57:37.626Z,18.12
2023-05-01T04:00:07.401Z,18.05
2023-05-01T04:02:43.210Z,17.79
2023-05-01T04:05:15.499Z,17.76
2023-05-01T04:07:49.035Z,17.66
2023-05-01T04:10:17.759Z,17.84
2023-05-01T04:12:54.828Z,17.80
2023-05-01T04:15:22.830Z,18.01
2023-05-01T04:17:51.321Z,17.82
2023-05-01T04:20:20.421Z,18.03
2023-05-01T04:22:48.747Z,17.88
2023-05-01T04:25:16.621Z,18.10
2023-05-01T04:27:48.979Z,18.05
2023-05-01T04:30:17.151Z,17.87
2023-05-01T04:32:45.883Z,17.84
2023-05-01T04:35:13.951Z,17.80
2023-05-01T04:37:44.634Z,17.60
2023-05-01T04:40:13.115Z,17.72
2023-05-01T04:42:42.613Z,17.78
2023-05-01T04:45:13.891Z,17.67
2023-05-01T04:47:42.170Z,17.76
2023-05-01T04:50:11.081Z,18.02
2023-05-01T04:52:39.609Z,17.96
2023-05-01T04:55:09.364Z,18.16
2023-05-01T04:57:42.330Z,17.95
2023-05-01T05:00:10.684Z,18.23
2023-05-01T05:02:47.709Z,17.96
2023-05-01T05:05:22.382Z,17.76
2023-05-01T05:07:51.036Z,18.03
2023-05-01T05:10:29.149Z,18.12
2023-05-01T05:13:15.413Z,17.79
2023-05-01T05:15:43.863Z,18.10
2023-05-01T05:18:13.166Z,17.95
2023-05-01T05:20:44.541Z,18.20
2023-05-01T05:23:12.973Z,18.05
2023-05-01T05:25:40.612Z,18.01
2023-05-01T05:28:11.494Z,18.11
2023-05-01T05:30:40.102Z,17.99
2023-05-01T05:33:10.241Z,17.89
2023-05-01T05:35:39.502Z,17.97
2023-05-01T05:38:11.594Z,17.91
2023-05-01T05:40:42.364Z,17.95
2023-05-01T05:43:10.935Z,17.88
2023-05-01T05:45:39.062Z,17.79
2023-05-01T05:48:07.255Z,17.88
2023-05-01T05:50:39.734Z,17.89
2023-05-01T05:53:10.086Z,17.88
2023-05-01T05:55:43.599Z,18.03
2023-05-01T05:58:12.597Z,18.03
2023-05-01T06:00:40.698Z,18.08
2023-05-01T06:03:11.664Z,18.00
2023-05-01T06:05:40.726Z,18.12
2023-05-01T06:08:12.364Z,18.27
2023-05-01T06:10:43.293Z,18.31
2023-05-01T06:13:13.921Z,17.93
2023-05-01T06:15:47.761Z,18.08
2023-05-01T06:18:19.487Z,18.32
2023-05-01T06:20:48.135Z,18.41
2023-05-01T06:23:16.432Z,18.17
2023-05-01T06:26:02.937Z,18.16
2023-05-01T06:28:31.445Z,18.14
2023-05-01T06:30:59.413Z,18.05
2023-05-01T06:33:31.662Z,18.12
2023-05-01T06:36:08.389Z,18.37
2023-05-01T06:38:36.879Z,18.23
2023-05-01T06:41:05.808Z,18.12
2023-05-01T06:43:33.886Z,18.11
2023-05-01T06:46:01.811Z,18.56
2023-05-01T06:48:29.987Z,18.31
2023-05-01T06:50:57.863Z,18.46
2023-05-01T06:53:26.881Z,18.45
2023-05-01T06:55:54.968Z,18.53
2023-05-01T06:58:24.576Z,18.59
2023-05-01T07:00:54.803Z,18.73
2023-05-01T07:03:23.230Z,18.59
2023-05-01T07:05:51.232Z,18.54
2023-05-01T07:08:19.874Z,18.38
2023-05-01T07:10:50.430Z,18.25
2023-05-01T07:13:18.610Z,18.71
2023-05-01T07:15:46.983Z,18.56
2023-05-01T07:18:20.654Z,18.66
2023-05-01T07:20:54.546Z,18.53
2023-05-01T07:23:23.860Z,18.65
2023-05-01T07:25:53.060Z,18.62
2023-05-01T07:28:26.309Z,18.60
2023-05-01T07:30:54.060Z,18.77
2023-05-01T07:33:22.394Z,18.64
2023-05-01T07:35:50.815Z,18.51
2023-05-01T07:38:18.902Z,18.66
2023-05-01T07:40:47.167Z,18.82
2023-05-01T07:43:15.242Z,19.11
2023-05-01T07:45:58.623Z,19.22
2023-05-01T07:48:28.066Z,19.50
2023-05-01T07:50:57.263Z,19.34
2023-05-01T07:53:25.995Z,19.22
2023-05-01T07:55:53.806Z,19.38
2023-05-01T07:58:21.597Z,19.36
2023-05-01T08:00:49.185Z,19.25
2023-05-01T08:03:17.209Z,18.86
2023-05-01T08:05:45.113Z,19.11
2023-05-01T08:08:13.455Z,19.15
2023-05-01T08:10:41.227Z,19.05
2023-05-01T08:13:08.995Z,19.42
2023-05-01T08:15:39.413Z,19.30
2023-05-01T08:18:07.259Z,19.31
2023-05-01T08:20:38.278Z,19.82
2023-05-01T08:23:06.112Z,19.61
2023-05-01T08:25:33.831Z,19.78
2023-05-01T08:28:01.814Z,19.49
2023-05-01T08:30:29.716Z,19.88
2023-05-01T08:32:57.782Z,20.14
2023-05-01T08:37:03.962Z,20.12
2023-05-01T08:40:59.077Z,20.33
2023-05-01T08:44:31.920Z,19.81
2023-05-01T08:48:30.371Z,19.74
2023-05-01T08:52:10.406Z,19.82
2023-05-01T08:55:50.702Z,19.81
2023-05-01T09:07:32.066Z,20.65
2023-05-01T09:11:11.615Z,20.63
2023-05-01T09:20:35.003Z,20.89
2023-05-01T09:28:36.869Z,21.51
2023-05-01T09:32:36.238Z,21.50
2023-05-01T09:36:32.602Z,21.86
2023-05-01T09:39:39.207Z,22.06
2023-05-01T09:42:07.273Z,21.79
2023-05-01T09:44:43.224Z,21.64
2023-05-01T09:47:11.585Z,21.17
2023-05-01T09:49:46.649Z,21.12
2023-05-01T09:52:17.062Z,21.46
2023-05-01T09:54:44.850Z,21.24
2023-05-01T09:57:12.880Z,21.02
2023-05-01T09:59:40.821Z,21.15
2023-05-01T10:02:27.686Z,21.15
2023-05-01T10:05:00.262Z,20.95
2023-05-01T10:07:28.153Z,20.72
2023-05-01T10:09:57.001Z,20.95
2023-05-01T10:12:28.485Z,21.09
2023-05-01T10:14:58.046Z,20.64
2023-05-01T10:17:26.132Z,21.02
2023-05-01T10:19:56.286Z,21.33
2023-05-01T10:22:24.888Z,21.35
2023-05-01T10:24:52.639Z,21.34
2023-05-01T10:27:22.574Z,21.31
2023-05-01T10:29:53.217Z,20.61
2023-05-01T10:32:22.109Z,20.83
2023-05-01T10:34:59.061Z,21.00
2023-05-01T10:37:38.220Z,21.01
2023-05-01T10:40:45.248Z,20.91
2023-05-01T10:43:28.025Z,21.38
2023-05-01T10:46:08.094Z,21.44
2023-05-01T10:48:39.175Z,21.09
2023-05-01T10:51:15.788Z,21.05
2023-05-01T10:53:44.942Z,20.98
2023-05-01T10:56:21.961Z,21.21
2023-05-01T10:58:56.038Z,21.25
2023-05-01T11:01:41.209Z,21.46
2023-05-01T11:04:24.840Z,21.34
2023-05-01T11:06:58.587Z,21.26
2023-05-01T11:09:39.627Z,21.79
2023-05-01T11:12:09.316Z,21.70
2023-05-01T11:15:14.064Z,21.80
2023-05-01T11:17:42.349Z,21.66
2023-05-01T11:20:12.490Z,21.76
2023-05-01T11:22:46.447Z,22.06
2023-05-01T11:25:24.806Z,21.59
2023-05-01T11:27:58.250Z,21.05
2023-05-01T11:30:26.496Z,21.34
2023-05-01T11:32:54.407Z,21.74
2023-05-01T11:35:28.342Z,21.73
2023-05-01T11:37:56.180Z,21.78
2023-05-01T11:40:28.051Z,21.31
2023-05-01T11:43:09.177Z,21.66
2023-05-01T11:45:37.934Z,21.76
2023-05-01T11:48:16.500Z,21.71
2023-05-01T11:50:44.488Z,21.61
2023-05-01T11:53:17.538Z,21.46
2023-05-01T11:55:45.713Z,21.25
2023-05-01T11:58:13.813Z,21.25
2023-05-01T12:00:43.682Z,21.44
2023-05-01T12:03:14.106Z,21.30
2023-05-01T12:05:45.836Z,21.57
2023-05-01T12:08:18.904Z,21.30
2023-05-01T12:11:01.027Z,21.28
2023-05-01T12:13:29.400Z,21.08
2023-05-01T12:15:57.415Z,21.32
2023-05-01T12:18:25.598Z,20.84
2023-05-01T12:20:55.531Z,20.64
2023-05-01T12:23:39.880Z,20.48
2023-05-01T12:26:25.422Z,20.82
2023-05-01T12:29:02.219Z,20.88
2023-05-01T12:31:33.898Z,21.19
2023-05-01T12:34:08.288Z,21.14
2023-05-01T12:36:40.158Z,21.22
2023-05-01T12:39:13.837Z,21.05
2023-05-01T12:41:51.806Z,20.67
2023-05-01T12:44:27.994Z,20.77
2023-05-01T12:47:07.486Z,20.79
2023-05-01T12:49:41.994Z,20.85
2023-05-01T12:52:10.094Z,20.86
2023-05-01T12:54:40.190Z,21.07
2023-05-01T12:57:14.809Z,21.33
2023-05-01T12:59:45.168Z,21.52
2023-05-01T13:02:17.709Z,21.27
2023-05-01T13:04:49.163Z,21.22
2023-05-01T13:07:19.105Z,21.30
2023-05-01T13:09:55.689Z,21.61
2023-05-01T13:12:24.897Z,21.35
2023-05-01T13:14:56.368Z,21.66
2023-05-01T13:17:26.975Z,21.63
2023-05-01T13:20:03.320Z,21.53
2023-05-01T13:22:36.848Z,21.02
2023-05-01T13:25:24.998Z,21.23
2023-05-01T13:27:53.696Z,21.48
2023-05-01T13:30:34.514Z,21.23
2023-05-01T13:33:05.502Z,21.54
2023-05-01T13:35:33.594Z,21.38
2023-05-01T13:38:03.703Z,21.32
2023-05-01T13:40:34.976Z,21.19
2023-05-01T13:43:03.097Z,20.89
2023-05-01T13:45:31.330Z,21.21
2023-05-01T13:47:59.429Z,21.42
2023-05-01T13:50:28.055Z,21.35
2023-05-01T13:52:55.850Z,21.23
2023-05-01T13:55:25.949Z,21.00
2023-05-01T13:57:53.926Z,21.13
2023-05-01T14:00:22.983Z,21.05
2023-05-01T14:02:53.757Z,20.87
2023-05-01T14:05:29.874Z,20.88
2023-05-01T14:07:59.033Z,20.34
2023-05-01T14:10:28.772Z,20.30
2023-05-01T14:13:00.367Z,20.22
2023-05-01T14:15:29.776Z,20.37
2023-05-01T14:18:09.073Z,20.50
2023-05-01T14:20:37.065Z,20.45
2023-05-01T14:23:06.250Z,20.41
2023-05-01T14:25:35.083Z,20.41
2023-05-01T14:28:07.989Z,20.22
2023-05-01T14:30:40.024Z,20.33
2023-05-01T14:33:11.310Z,20.28
2023-05-01T14:35:50.244Z,19.98
2023-05-01T14:38:20.045Z,19.99
2023-05-01T14:40:48.466Z,19.79
2023-05-01T14:43:18.006Z,20.06
2023-05-01T14:45:46.983Z,20.19
2023-05-01T14:48:22.184Z,19.80
2023-05-01T14:50:51.454Z,20.08
2023-05-01T14:53:19.709Z,20.11
2023-05-01T14:55:51.627Z,20.13
2023-05-01T14:58:19.932Z,20.13
2023-05-01T15:00:47.585Z,20.15
2023-05-01T15:03:15.606Z,20.23
2023-05-01T15:05:44.595Z,20.16
2023-05-01T15:08:12.606Z,20.42
2023-05-01T15:10:40.294Z,20.39
2023-05-01T15:13:09.154Z,20.35
2023-05-01T15:15:37.029Z,20.21
2023-05-01T15:18:04.792Z,20.58
2023-05-01T15:20:32.558Z,20.34
2023-05-01T15:23:00.209Z,20.53
2023-05-01T15:25:28.020Z,20.28
2023-05-01T15:27:55.886Z,20.39
2023-05-01T15:30:23.739Z,20.34
2023-05-01T15:32:51.897Z,20.07
2023-05-01T15:35:21.616Z,20.19
2023-05-01T15:37:49.696Z,20.24
2023-05-01T15:40:17.508Z,20.20
2023-05-01T15:42:48.073Z,20.23
2023-05-01T15:45:15.913Z,20.05
2023-05-01T15:47:44.014Z,20.17
2023-05-01T15:50:12.149Z,19.99
2023-05-01T15:52:40.459Z,20.02
2023-05-01T15:55:08.776Z,19.84
2023-05-01T15:57:37.104Z,19.96
2023-05-01T16:00:05.737Z,20.03
2023-05-01T16:02:34.204Z,19.94
2023-05-01T16:05:02.016Z,19.89
2023-05-01T16:07:30.293Z,20.00
2023-05-01T16:09:58.639Z,19.60
2023-05-01T16:12:30.234Z,19.67
2023-05-01T16:14:58.330Z,20.05
2023-05-01T16:17:26.177Z,19.92
2023-05-01T16:19:55.380Z,19.92
2023-05-01T16:22:23.298Z,19.53
2023-05-01T16:24:51.056Z,19.49
2023-05-01T16:27:20.179Z,19.58
2023-05-01T16:29:48.014Z,19.90
2023-05-01T16:32:17.263Z,19.77
2023-05-01T16:34:45.454Z,19.39
2023-05-01T16:37:17.651Z,19.73
2023-05-01T16:39:48.102Z,19.89
2023-05-01T16:42:15.820Z,19.75
2023-05-01T16:44:43.837Z,19.47
2023-05-01T16:47:12.845Z,19.25
2023-05-01T16:49:46.609Z,19.69
2023-05-01T16:52:15.794Z,19.26
2023-05-01T16:54:43.729Z,19.15
2023-05-01T16:57:11.791Z,19.25
2023-05-01T16:59:39.353Z,19.30
2023-05-01T17:02:08.859Z,19.47
2023-05-01T17:04:36.510Z,19.31
2023-05-01T17:07:04.982Z,19.71
2023-05-01T17:09:33.844Z,19.36
2023-05-01T17:12:03.691Z,19.13
2023-05-01T17:14:31.602Z,19.31
2023-05-01T17:17:02.301Z,19.10
2023-05-01T17:19:30.454Z,18.90
2023-05-01T17:21:58.598Z,18.89
2023-05-01T17:24:27.672Z,18.84
2023-05-01T17:26:55.795Z,18.48
2023-05-01T17:29:24.654Z,18.74
2023-05-01T17:31:52.468Z,18.53
2023-05-01T17:34:21.242Z,18.34
2023-05-01T17:36:51.873Z,18.85
2023-05-01T17:39:21.897Z,18.92
2023-05-01T17:41:50.724Z,18.91
2023-05-01T17:44:18.756Z,18.49
2023-05-01T17:46:47.399Z,18.15
2023-05-01T17:49:18.161Z,18.04
2023-05-01T17:51:49.823Z,17.98
2023-05-01T17:54:18.117Z,17.70
2023-05-01T17:56:45.978Z,17.50
2023-05-01T17:59:14.020Z,17.68
2023-05-01T18:01:42.507Z,17.48
2023-05-01T18:04:11.300Z,17.48
2023-05-01T18:06:39.978Z,17.65
2023-05-01T18:09:09.155Z,17.59
2023-05-01T18:11:37.001Z,17.49
2023-05-01T18:17:23.926Z,17.26
2023-05-01T18:19:52.190Z,17.41
2023-05-01T18:22:22.608Z,17.37
2023-05-01T18:24:50.790Z,17.05
2023-05-01T18:27:19.189Z,17.18
2023-05-01T18:29:54.900Z,17.78
2023-05-01T18:32:28.039Z,18.11
2023-05-01T18:35:03.051Z,18.32
2023-05-01T18:37:31.302Z,18.06
2023-05-01T18:40:00.712Z,18.01
2023-05-01T18:42:29.316Z,18.25
2023-05-01T18:44:57.188Z,18.12
2023-05-01T18:47:28.881Z,18.07
2023-05-01T18:49:57.579Z,17.96
2023-05-01T18:52:26.380Z,17.98
2023-05-01T18:54:56.565Z,17.74
2023-05-01T18:57:24.651Z,17.44
2023-05-01T18:59:52.879Z,16.98
2023-05-01T19:02:21.539Z,17.00
2023-05-01T19:04:57.535Z,17.41
2023-05-01T19:07:26.827Z,17.58
2023-05-01T19:09:55.081Z,17.78
2023-05-01T19:12:23.446Z,17.55
2023-05-01T19:14:51.794Z,17.70
2023-05-01T19:17:20.390Z,17.67
2023-05-01T19:19:48.708Z,17.32
2023-05-01T19:22:17.068Z,16.78
2023-05-01T19:24:45.128Z,16.51
2023-05-01T19:27:13.680Z,16.85
2023-05-01T19:29:42.446Z,17.29
2023-05-01T19:32:11.579Z,17.82
2023-05-01T19:34:39.760Z,17.74
2023-05-01T19:37:08.880Z,17.25
2023-05-01T19:39:41.027Z,17.59
2023-05-01T19:42:09.260Z,16.83
2023-05-01T19:44:37.380Z,16.77
2023-05-01T19:47:05.508Z,17.28
2023-05-01T19:49:33.874Z,16.75
2023-05-01T19:52:02.472Z,16.48
2023-05-01T19:54:32.895Z,16.70
2023-05-01T19:57:02.280Z,16.98
2023-05-01T19:59:31.171Z,17.36
2023-05-01T20:02:03.448Z,16.62
2023-05-01T20:04:33.043Z,16.40
2023-05-01T20:07:05.130Z,16.06
2023-05-01T20:09:32.981Z,16.11
2023-05-01T20:12:01.799Z,16.30
2023-05-01T20:14:31.716Z,16.15
2023-05-01T20:17:01.647Z,15.95
2023-05-01T20:19:29.997Z,15.80
2023-05-01T20:21:58.104Z,15.72
2023-05-01T20:24:26.047Z,16.06
2023-05-01T20:26:56.029Z,16.16
2023-05-01T20:29:24.700Z,15.89
2023-05-01T20:31:52.976Z,16.09
2023-05-01T20:34:21.323Z,16.11
2023-05-01T20:36:49.359Z,16.38
2023-05-01T20:39:17.420Z,16.27
2023-05-01T20:41:45.643Z,16.15
2023-05-01T20:44:14.328Z,16.17
2023-05-01T20:46:49.452Z,16.36
2023-05-01T20:49:17.656Z,16.26
2023-05-01T20:51:46.243Z,16.00
2023-05-01T20:54:14.590Z,16.21
2023-05-01T20:56:42.680Z,15.87
2023-05-01T20:59:10.441Z,16.12
2023-05-01T21:01:38.755Z,16.19
2023-05-01T21:04:07.266Z,16.22
2023-05-01T21:06:35.180Z,16.83
2023-05-01T21:09:05.262Z,16.90
2023-05-01T21:11:33.692Z,16.93
2023-05-01T21:14:01.954Z,16.79
2023-05-01T21:16:29.858Z,16.80
2023-05-01T21:18:57.653Z,16.77
2023-05-01T21:21:26.618Z,16.51
2023-05-01T21:23:54.486Z,16.24
2023-05-01T21:26:22.894Z,16.28
2023-05-01T21:28:51.046Z,16.07
2023-05-01T21:31:19.312Z,15.92
2023-05-01T21:34:02.614Z,15.73
2023-05-01T21:36:30.452Z,15.92
2023-05-01T21:39:00.391Z,15.62
2023-05-01T21:41:28.088Z,15.51
2023-05-01T21:43:55.957Z,15.58
2023-05-01T21:46:24.062Z,15.70
2023-05-01T21:48:52.847Z,15.96
2023-05-01T21:51:30.255Z,15.81
2023-05-01T21:54:01.850Z,16.05
2023-05-01T21:56:30.963Z,15.85
2023-05-01T21:59:01.982Z,15.76
2023-05-01T22:01:30.119Z,15.87
2023-05-01T22:03:58.617Z,15.83
2023-05-01T22:06:27.226Z,15.77
2023-05-01T22:08:55.185Z,15.70
2023-05-01T22:11:23.420Z,15.80
2023-05-01T22:13:51.093Z,15.65
2023-05-01T22:16:22.971Z,15.95
2023-05-01T22:18:51.082Z,15.83
2023-05-01T22:21:19.234Z,15.75
2023-05-01T22:23:46.826Z,15.75
2023-05-01T22:26:15.102Z,15.62
2023-05-01T22:28:42.981Z,15.40
2023-05-01T22:31:11.042Z,15.42
2023-05-01T22:33:38.657Z,15.45
2023-05-01T22:36:07.728Z,15.25
2023-05-01T22:38:36.750Z,15.36
2023-05-01T22:41:04.340Z,15.38
2023-05-01T22:43:33.210Z,15.36
2023-05-01T22:46:01.311Z,15.27
2023-05-01T22:48:29.976Z,15.18
2023-05-01T22:50:57.753Z,15.18
2023-05-01T22:53:27.899Z,15.00
2023-05-01T22:55:56.064Z,14.94
2023-05-01T22:58:26.493Z,15.08
2023-05-01T23:00:57.537Z,15.15
2023-05-01T23:03:26.938Z,14.95
2023-05-01T23:05:55.277Z,14.82
2023-05-01T23:08:23.104Z,14.92
2023-05-01T23:10:50.989Z,14.61
2023-05-01T23:13:22.845Z,14.75
2023-05-01T23:15:52.437Z,14.74
2023-05-01T23:18:25.143Z,14.51
2023-05-01T23:20:52.965Z,14.71
2023-05-01T23:23:21.562Z,14.56
2023-05-01T23:25:50.935Z,14.69
2023-05-01T23:28:24.087Z,14.64
2023-05-01T23:30:54.935Z,14.65
2023-05-01T23:33:25.601Z,14.48
2023-05-01T23:35:53.818Z,14.59
2023-05-01T23:38:22.191Z,14.47
2023-05-01T23:40:50.600Z,14.40
2023-05-01T23:43:19.123Z,14.58
2023-05-01T23:45:47.229Z,14.75
2023-05-01T23:48:15.263Z,14.78
2023-05-01T23:50:43.201Z,14.58
2023-05-01T23:53:10.936Z,14.62
2023-05-01T23:55:38.722Z,14.68
2023-05-01T23:58:07.136Z,14.85
